sensor_id;sensor_type;location;lat;lon;timestamp;P1;durP1;ratioP1;P2;durP2;ratioP2
5912;SDS011;2982;42.684;23.356;2023-01-04T00:00:47;10.05;;;8.65;;
5912;SDS011;2982;42.684;23.356;2023-01-04T00:03:12;8.75;;;7.95;;
5912;SDS011;2982;42.684;23.356;2023-01-04T00:05:40;10.13;;;8.90;;
5912;SDS011;2982;42.684;23.356;2023-01-04T00:08:06;10.00;;;8.20;;
5912;SDS011;2982;42.684;23.356;2023-01-04T00:10:31;7.95;;;7.22;;
5912;SDS011;2982;42.684;23.356;2023-01-04T00:12:56;10.57;;;8.27;;
5912;SDS011;2982;42.684;23.356;2023-01-04T00:15:23;11.18;;;9.35;;
5912;SDS011;2982;42.684;23.356;2023-01-04T00:17:48;9.05;;;7.68;;
5912;SDS011;2982;42.684;23.356;2023-01-04T00:20:13;10.35;;;8.55;;
5912;SDS011;2982;42.684;23.356;2023-01-04T00:22:39;9.90;;;8.90;;
5912;SDS011;2982;42.684;23.356;2023-01-04T00:25:04;9.77;;;8.75;;
5912;SDS011;2982;42.684;23.356;2023-01-04T00:27:30;10.73;;;8.27;;
5912;SDS011;2982;42.684;23.356;2023-01-04T00:29:55;12.18;;;7.38;;
5912;SDS011;2982;42.684;23.356;2023-01-04T00:32:20;8.85;;;8.07;;
5912;SDS011;2982;42.684;23.356;2023-01-04T00:34:45;8.95;;;8.10;;
5912;SDS011;2982;42.684;23.356;2023-01-04T00:37:11;7.85;;;7.13;;
5912;SDS011;2982;42.684;23.356;2023-01-04T00:39:36;7.82;;;7.03;;
5912;SDS011;2982;42.684;23.356;2023-01-04T00:42:01;7.15;;;6.43;;
5912;SDS011;2982;42.684;23.356;2023-01-04T00:44:27;8.35;;;7.55;;
5912;SDS011;2982;42.684;23.356;2023-01-04T00:46:53;9.02;;;7.60;;
5912;SDS011;2982;42.684;23.356;2023-01-04T00:49:19;7.60;;;6.82;;
5912;SDS011;2982;42.684;23.356;2023-01-04T00:51:44;8.35;;;7.63;;
5912;SDS011;2982;42.684;23.356;2023-01-04T00:54:11;10.90;;;7.78;;
5912;SDS011;2982;42.684;23.356;2023-01-04T00:56:38;11.73;;;8.13;;
5912;SDS011;2982;42.684;23.356;2023-01-04T00:59:03;7.97;;;7.28;;
5912;SDS011;2982;42.684;23.356;2023-01-04T01:01:29;7.97;;;7.22;;
5912;SDS011;2982;42.684;23.356;2023-01-04T01:03:56;9.10;;;8.18;;
5912;SDS011;2982;42.684;23.356;2023-01-04T01:06:24;8.85;;;7.85;;
5912;SDS011;2982;42.684;23.356;2023-01-04T01:08:50;9.60;;;8.05;;
5912;SDS011;2982;42.684;23.356;2023-01-04T01:11:16;11.17;;;8.30;;
5912;SDS011;2982;42.684;23.356;2023-01-04T01:13:41;10.95;;;8.27;;
5912;SDS011;2982;42.684;23.356;2023-01-04T01:16:14;11.15;;;8.60;;
5912;SDS011;2982;42.684;23.356;2023-01-04T01:18:42;8.50;;;7.70;;
5912;SDS011;2982;42.684;23.356;2023-01-04T01:21:09;7.95;;;7.30;;
5912;SDS011;2982;42.684;23.356;2023-01-04T01:23:37;9.18;;;8.40;;
5912;SDS011;2982;42.684;23.356;2023-01-04T01:26:04;10.63;;;7.70;;
5912;SDS011;2982;42.684;23.356;2023-01-04T01:28:32;7.10;;;6.57;;
5912;SDS011;2982;42.684;23.356;2023-01-04T01:30:59;8.88;;;7.97;;
5912;SDS011;2982;42.684;23.356;2023-01-04T01:33:32;11.38;;;8.52;;
5912;SDS011;2982;42.684;23.356;2023-01-04T01:36:00;11.73;;;8.00;;
5912;SDS011;2982;42.684;23.356;2023-01-04T01:38:26;9.85;;;9.05;;
5912;SDS011;2982;42.684;23.356;2023-01-04T01:40:51;9.45;;;8.57;;
5912;SDS011;2982;42.684;23.356;2023-01-04T01:43:17;9.50;;;7.63;;
5912;SDS011;2982;42.684;23.356;2023-01-04T01:45:45;11.03;;;8.23;;
5912;SDS011;2982;42.684;23.356;2023-01-04T01:48:14;9.43;;;8.63;;
5912;SDS011;2982;42.684;23.356;2023-01-04T01:50:46;12.00;;;9.50;;
5912;SDS011;2982;42.684;23.356;2023-01-04T01:53:19;8.73;;;7.83;;
5912;SDS011;2982;42.684;23.356;2023-01-04T01:55:46;10.57;;;8.73;;
5912;SDS011;2982;42.684;23.356;2023-01-04T01:58:17;10.47;;;9.33;;
5912;SDS011;2982;42.684;23.356;2023-01-04T02:00:49;10.30;;;7.70;;
5912;SDS011;2982;42.684;23.356;2023-01-04T02:03:15;10.40;;;7.50;;
5912;SDS011;2982;42.684;23.356;2023-01-04T02:05:43;10.70;;;9.17;;
5912;SDS011;2982;42.684;23.356;2023-01-04T02:08:10;11.17;;;8.43;;
5912;SDS011;2982;42.684;23.356;2023-01-04T02:10:38;11.27;;;9.77;;
5912;SDS011;2982;42.684;23.356;2023-01-04T02:13:05;10.80;;;9.20;;
5912;SDS011;2982;42.684;23.356;2023-01-04T02:15:46;11.13;;;9.53;;
5912;SDS011;2982;42.684;23.356;2023-01-04T02:18:36;12.70;;;9.77;;
5912;SDS011;2982;42.684;23.356;2023-01-04T02:21:12;11.75;;;9.68;;
5912;SDS011;2982;42.684;23.356;2023-01-04T02:23:51;12.23;;;9.33;;
5912;SDS011;2982;42.684;23.356;2023-01-04T02:35:20;13.37;;;10.03;;
5912;SDS011;2982;42.684;23.356;2023-01-04T02:38:12;10.13;;;9.10;;
5912;SDS011;2982;42.684;23.356;2023-01-04T02:46:28;14.37;;;10.33;;
5912;SDS011;2982;42.684;23.356;2023-01-04T02:48:59;11.05;;;9.93;;
5912;SDS011;2982;42.684;23.356;2023-01-04T02:53:56;15.43;;;11.00;;
5912;SDS011;2982;42.684;23.356;2023-01-04T02:56:28;14.07;;;10.40;;
5912;SDS011;2982;42.684;23.356;2023-01-04T02:59:19;13.53;;;11.00;;
5912;SDS011;2982;42.684;23.356;2023-01-04T03:07:36;16.30;;;10.17;;
5912;SDS011;2982;42.684;23.356;2023-01-04T03:10:13;12.57;;;10.13;;
5912;SDS011;2982;42.684;23.356;2023-01-04T03:12:50;13.47;;;11.20;;
5912;SDS011;2982;42.684;23.356;2023-01-04T03:15:22;10.95;;;9.25;;
5912;SDS011;2982;42.684;23.356;2023-01-04T03:17:53;13.67;;;9.27;;
5912;SDS011;2982;42.684;23.356;2023-01-04T03:20:22;14.00;;;9.93;;
5912;SDS011;2982;42.684;23.356;2023-01-04T03:22:53;13.47;;;9.73;;
5912;SDS011;2982;42.684;23.356;2023-01-04T03:25:24;13.93;;;9.87;;
5912;SDS011;2982;42.684;23.356;2023-01-04T03:27:53;15.37;;;10.93;;
5912;SDS011;2982;42.684;23.356;2023-01-04T03:30:19;12.43;;;9.47;;
5912;SDS011;2982;42.684;23.356;2023-01-04T03:32:53;17.97;;;13.63;;
5912;SDS011;2982;42.684;23.356;2023-01-04T03:35:21;15.33;;;11.93;;
5912;SDS011;2982;42.684;23.356;2023-01-04T03:40:55;11.33;;;10.20;;
5912;SDS011;2982;42.684;23.356;2023-01-04T03:43:31;13.53;;;11.13;;
5912;SDS011;2982;42.684;23.356;2023-01-04T03:46:09;15.27;;;11.63;;
5912;SDS011;2982;42.684;23.356;2023-01-04T03:51:20;16.57;;;11.50;;
5912;SDS011;2982;42.684;23.356;2023-01-04T03:56:20;16.40;;;11.53;;
5912;SDS011;2982;42.684;23.356;2023-01-04T03:58:48;16.17;;;11.07;;
5912;SDS011;2982;42.684;23.356;2023-01-04T04:01:16;13.27;;;10.43;;
5912;SDS011;2982;42.684;23.356;2023-01-04T04:03:43;17.53;;;12.17;;
5912;SDS011;2982;42.684;23.356;2023-01-04T04:06:08;13.73;;;10.73;;
5912;SDS011;2982;42.684;23.356;2023-01-04T04:08:34;13.10;;;11.60;;
5912;SDS011;2982;42.684;23.356;2023-01-04T04:11:00;11.53;;;9.80;;
5912;SDS011;2982;42.684;23.356;2023-01-04T04:13:26;13.07;;;10.30;;
5912;SDS011;2982;42.684;23.356;2023-01-04T04:15:52;11.80;;;10.63;;
5912;SDS011;2982;42.684;23.356;2023-01-04T04:18:17;19.77;;;12.03;;
5912;SDS011;2982;42.684;23.356;2023-01-04T04:20:42;13.27;;;11.47;;
5912;SDS011;2982;42.684;23.356;2023-01-04T04:23:08;15.63;;;12.17;;
5912;SDS011;2982;42.684;23.356;2023-01-04T04:25:33;17.52;;;12.70;;
5912;SDS011;2982;42.684;23.356;2023-01-04T04:27:58;15.80;;;12.23;;
5912;SDS011;2982;42.684;23.356;2023-01-04T04:30:24;12.50;;;10.53;;
5912;SDS011;2982;42.684;23.356;2023-01-04T04:32:49;19.60;;;11.73;;
5912;SDS011;2982;42.684;23.356;2023-01-04T04:35:14;14.83;;;10.37;;
5912;SDS011;2982;42.684;23.356;2023-01-04T04:37:40;13.63;;;10.03;;
5912;SDS011;2982;42.684;23.356;2023-01-04T04:40:05;13.00;;;9.00;;
5912;SDS011;2982;42.684;23.356;2023-01-04T04:42:31;14.40;;;10.27;;
5912;SDS011;2982;42.684;23.356;2023-01-04T04:44:56;13.63;;;10.60;;
5912;SDS011;2982;42.684;23.356;2023-01-04T04:47:22;11.97;;;9.87;;
5912;SDS011;2982;42.684;23.356;2023-01-04T04:49:47;14.87;;;11.93;;
5912;SDS011;2982;42.684;23.356;2023-01-04T04:52:12;11.53;;;8.93;;
5912;SDS011;2982;42.684;23.356;2023-01-04T04:54:38;12.23;;;11.00;;
5912;SDS011;2982;42.684;23.356;2023-01-04T04:57:03;16.60;;;9.63;;
5912;SDS011;2982;42.684;23.356;2023-01-04T04:59:28;13.77;;;10.37;;
5912;SDS011;2982;42.684;23.356;2023-01-04T05:01:54;12.17;;;10.97;;
5912;SDS011;2982;42.684;23.356;2023-01-04T05:04:19;13.37;;;9.37;;
5912;SDS011;2982;42.684;23.356;2023-01-04T05:06:45;19.07;;;10.30;;
5912;SDS011;2982;42.684;23.356;2023-01-04T05:09:12;19.53;;;12.30;;
5912;SDS011;2982;42.684;23.356;2023-01-04T05:11:38;17.60;;;11.37;;
5912;SDS011;2982;42.684;23.356;2023-01-04T05:14:04;14.23;;;11.33;;
5912;SDS011;2982;42.684;23.356;2023-01-04T05:16:29;10.70;;;9.20;;
5912;SDS011;2982;42.684;23.356;2023-01-04T05:18:54;14.67;;;11.17;;
5912;SDS011;2982;42.684;23.356;2023-01-04T05:21:19;13.77;;;10.40;;
5912;SDS011;2982;42.684;23.356;2023-01-04T05:23:45;11.50;;;8.83;;
5912;SDS011;2982;42.684;23.356;2023-01-04T05:26:10;13.67;;;9.47;;
5912;SDS011;2982;42.684;23.356;2023-01-04T05:28:35;12.77;;;10.97;;
5912;SDS011;2982;42.684;23.356;2023-01-04T05:31:00;14.23;;;10.67;;
5912;SDS011;2982;42.684;23.356;2023-01-04T05:33:27;15.47;;;10.00;;
5912;SDS011;2982;42.684;23.356;2023-01-04T05:35:55;14.67;;;11.47;;
5912;SDS011;2982;42.684;23.356;2023-01-04T05:38:22;13.47;;;11.50;;
5912;SDS011;2982;42.684;23.356;2023-01-04T05:40:48;15.37;;;10.30;;
5912;SDS011;2982;42.684;23.356;2023-01-04T05:43:14;20.17;;;12.13;;
5912;SDS011;2982;42.684;23.356;2023-01-04T05:45:41;14.47;;;10.80;;
5912;SDS011;2982;42.684;23.356;2023-01-04T05:48:08;16.23;;;12.40;;
5912;SDS011;2982;42.684;23.356;2023-01-04T05:50:33;15.87;;;11.53;;
5912;SDS011;2982;42.684;23.356;2023-01-04T05:52:59;14.83;;;11.83;;
5912;SDS011;2982;42.684;23.356;2023-01-04T05:55:24;16.70;;;12.53;;
5912;SDS011;2982;42.684;23.356;2023-01-04T05:57:49;14.47;;;11.90;;
5912;SDS011;2982;42.684;23.356;2023-01-04T06:00:15;18.17;;;13.27;;
5912;SDS011;2982;42.684;23.356;2023-01-04T06:02:41;16.20;;;11.40;;
5912;SDS011;2982;42.684;23.356;2023-01-04T06:05:07;14.53;;;12.00;;
5912;SDS011;2982;42.684;23.356;2023-01-04T06:07:33;17.03;;;11.93;;
5912;SDS011;2982;42.684;23.356;2023-01-04T06:09:58;17.20;;;12.10;;
5912;SDS011;2982;42.684;23.356;2023-01-04T06:12:23;17.30;;;11.50;;
5912;SDS011;2982;42.684;23.356;2023-01-04T06:14:49;15.50;;;11.70;;
5912;SDS011;2982;42.684;23.356;2023-01-04T06:17:14;13.73;;;12.17;;
5912;SDS011;2982;42.684;23.356;2023-01-04T06:19:40;17.57;;;12.20;;
5912;SDS011;2982;42.684;23.356;2023-01-04T06:22:05;15.10;;;11.77;;
5912;SDS011;2982;42.684;23.356;2023-01-04T06:24:31;17.83;;;11.70;;
5912;SDS011;2982;42.684;23.356;2023-01-04T06:26:56;17.27;;;11.93;;
5912;SDS011;2982;42.684;23.356;2023-01-04T06:29:22;19.97;;;12.00;;
5912;SDS011;2982;42.684;23.356;2023-01-04T06:31:47;23.80;;;11.83;;
5912;SDS011;2982;42.684;23.356;2023-01-04T06:34:13;16.83;;;11.77;;
5912;SDS011;2982;42.684;23.356;2023-01-04T06:36:39;16.77;;;12.07;;
5912;SDS011;2982;42.684;23.356;2023-01-04T06:39:05;12.57;;;11.27;;
5912;SDS011;2982;42.684;23.356;2023-01-04T06:41:31;13.37;;;11.50;;
5912;SDS011;2982;42.684;23.356;2023-01-04T06:43:57;13.93;;;11.53;;
5912;SDS011;2982;42.684;23.356;2023-01-04T06:46:22;18.37;;;12.00;;
5912;SDS011;2982;42.684;23.356;2023-01-04T06:48:48;18.67;;;10.60;;
5912;SDS011;2982;42.684;23.356;2023-01-04T06:51:13;11.97;;;9.63;;
5912;SDS011;2982;42.684;23.356;2023-01-04T06:53:38;13.93;;;11.57;;
5912;SDS011;2982;42.684;23.356;2023-01-04T06:56:04;15.03;;;10.90;;
5912;SDS011;2982;42.684;23.356;2023-01-04T06:58:30;15.48;;;11.77;;
5912;SDS011;2982;42.684;23.356;2023-01-04T07:00:55;15.13;;;11.80;;
5912;SDS011;2982;42.684;23.356;2023-01-04T07:03:21;13.37;;;10.63;;
5912;SDS011;2982;42.684;23.356;2023-01-04T07:05:46;11.80;;;10.13;;
5912;SDS011;2982;42.684;23.356;2023-01-04T07:08:21;13.57;;;11.83;;
5912;SDS011;2982;42.684;23.356;2023-01-04T07:10:50;18.07;;;11.37;;
5912;SDS011;2982;42.684;23.356;2023-01-04T07:13:15;12.97;;;10.50;;
5912;SDS011;2982;42.684;23.356;2023-01-04T07:15:40;15.60;;;11.20;;
5912;SDS011;2982;42.684;23.356;2023-01-04T07:18:06;16.67;;;11.30;;
5912;SDS011;2982;42.684;23.356;2023-01-04T07:20:33;11.90;;;10.70;;
5912;SDS011;2982;42.684;23.356;2023-01-04T07:22:58;18.87;;;13.53;;
5912;SDS011;2982;42.684;23.356;2023-01-04T07:25:23;13.97;;;11.07;;
5912;SDS011;2982;42.684;23.356;2023-01-04T07:27:49;12.82;;;10.77;;
5912;SDS011;2982;42.684;23.356;2023-01-04T07:30:27;18.33;;;10.87;;
5912;SDS011;2982;42.684;23.356;2023-01-04T07:32:53;14.80;;;10.77;;
5912;SDS011;2982;42.684;23.356;2023-01-04T07:35:19;16.27;;;12.30;;
5912;SDS011;2982;42.684;23.356;2023-01-04T07:37:45;14.03;;;10.03;;
5912;SDS011;2982;42.684;23.356;2023-01-04T07:40:11;16.73;;;11.77;;
5912;SDS011;2982;42.684;23.356;2023-01-04T07:42:37;15.70;;;11.65;;
5912;SDS011;2982;42.684;23.356;2023-01-04T07:45:03;11.27;;;10.15;;
5912;SDS011;2982;42.684;23.356;2023-01-04T07:47:29;13.95;;;10.45;;
5912;SDS011;2982;42.684;23.356;2023-01-04T07:49:54;15.68;;;11.05;;
5912;SDS011;2982;42.684;23.356;2023-01-04T07:52:19;14.90;;;11.27;;
5912;SDS011;2982;42.684;23.356;2023-01-04T07:54:45;15.68;;;11.95;;
5912;SDS011;2982;42.684;23.356;2023-01-04T07:57:10;13.57;;;11.30;;
5912;SDS011;2982;42.684;23.356;2023-01-04T07:59:36;13.70;;;10.45;;
5912;SDS011;2982;42.684;23.356;2023-01-04T08:02:01;13.73;;;10.27;;
5912;SDS011;2982;42.684;23.356;2023-01-04T08:04:26;18.50;;;11.43;;
5912;SDS011;2982;42.684;23.356;2023-01-04T08:06:52;14.32;;;10.50;;
5912;SDS011;2982;42.684;23.356;2023-01-04T08:09:17;17.85;;;11.27;;
5912;SDS011;2982;42.684;23.356;2023-01-04T08:11:43;12.90;;;10.25;;
5912;SDS011;2982;42.684;23.356;2023-01-04T08:14:09;14.40;;;10.93;;
5912;SDS011;2982;42.684;23.356;2023-01-04T08:16:36;13.73;;;10.53;;
5912;SDS011;2982;42.684;23.356;2023-01-04T08:19:03;15.20;;;10.50;;
5912;SDS011;2982;42.684;23.356;2023-01-04T08:21:30;11.70;;;9.37;;
5912;SDS011;2982;42.684;23.356;2023-01-04T08:23:57;14.23;;;11.83;;
5912;SDS011;2982;42.684;23.356;2023-01-04T08:26:23;14.90;;;10.43;;
5912;SDS011;2982;42.684;23.356;2023-01-04T08:28:48;10.80;;;8.93;;
5912;SDS011;2982;42.684;23.356;2023-01-04T08:31:18;11.27;;;9.00;;
5912;SDS011;2982;42.684;23.356;2023-01-04T08:33:46;11.57;;;9.50;;
5912;SDS011;2982;42.684;23.356;2023-01-04T08:38:42;10.33;;;9.27;;
5912;SDS011;2982;42.684;23.356;2023-01-04T08:41:07;14.80;;;9.37;;
5912;SDS011;2982;42.684;23.356;2023-01-04T08:43:33;11.63;;;10.17;;
5912;SDS011;2982;42.684;23.356;2023-01-04T08:45:59;12.57;;;11.03;;
5912;SDS011;2982;42.684;23.356;2023-01-04T08:48:24;13.33;;;10.33;;
5912;SDS011;2982;42.684;23.356;2023-01-04T08:50:49;19.03;;;11.73;;
5912;SDS011;2982;42.684;23.356;2023-01-04T08:53:14;11.30;;;9.73;;
5912;SDS011;2982;42.684;23.356;2023-01-04T08:55:40;13.53;;;10.27;;
5912;SDS011;2982;42.684;23.356;2023-01-04T08:58:05;14.63;;;10.93;;
5912;SDS011;2982;42.684;23.356;2023-01-04T09:00:30;11.50;;;8.63;;
5912;SDS011;2982;42.684;23.356;2023-01-04T09:02:55;12.15;;;10.57;;
5912;SDS011;2982;42.684;23.356;2023-01-04T09:05:21;10.60;;;8.87;;
5912;SDS011;2982;42.684;23.356;2023-01-04T09:07:46;12.63;;;11.20;;
5912;SDS011;2982;42.684;23.356;2023-01-04T09:10:11;15.40;;;11.20;;
5912;SDS011;2982;42.684;23.356;2023-01-04T09:12:37;12.10;;;10.30;;
5912;SDS011;2982;42.684;23.356;2023-01-04T09:15:02;13.40;;;10.63;;
5912;SDS011;2982;42.684;23.356;2023-01-04T09:17:28;12.60;;;10.43;;
5912;SDS011;2982;42.684;23.356;2023-01-04T09:19:53;12.50;;;10.57;;
5912;SDS011;2982;42.684;23.356;2023-01-04T09:22:19;12.47;;;10.53;;
5912;SDS011;2982;42.684;23.356;2023-01-04T09:24:44;12.63;;;10.13;;
5912;SDS011;2982;42.684;23.356;2023-01-04T09:27:09;14.25;;;10.45;;
5912;SDS011;2982;42.684;23.356;2023-01-04T09:29:34;17.40;;;9.73;;
5912;SDS011;2982;42.684;23.356;2023-01-04T09:32:00;21.00;;;11.68;;
5912;SDS011;2982;42.684;23.356;2023-01-04T09:34:25;16.43;;;11.67;;
5912;SDS011;2982;42.684;23.356;2023-01-04T09:36:51;10.18;;;9.15;;
5912;SDS011;2982;42.684;23.356;2023-01-04T09:39:16;14.52;;;9.73;;
5912;SDS011;2982;42.684;23.356;2023-01-04T09:41:43;15.73;;;10.87;;
5912;SDS011;2982;42.684;23.356;2023-01-04T09:44:17;11.05;;;9.52;;
5912;SDS011;2982;42.684;23.356;2023-01-04T09:47:03;12.18;;;9.43;;
5912;SDS011;2982;42.684;23.356;2023-01-04T09:52:17;10.03;;;8.50;;
5912;SDS011;2982;42.684;23.356;2023-01-04T09:54:53;12.93;;;9.23;;
5912;SDS011;2982;42.684;23.356;2023-01-04T10:00:02;12.07;;;9.90;;
5912;SDS011;2982;42.684;23.356;2023-01-04T10:02:32;13.43;;;9.67;;
5912;SDS011;2982;42.684;23.356;2023-01-04T10:05:06;14.63;;;9.70;;
5912;SDS011;2982;42.684;23.356;2023-01-04T10:07:38;13.00;;;8.73;;
5912;SDS011;2982;42.684;23.356;2023-01-04T10:10:04;14.15;;;10.50;;
5912;SDS011;2982;42.684;23.356;2023-01-04T10:12:43;13.00;;;9.80;;
5912;SDS011;2982;42.684;23.356;2023-01-04T10:15:33;13.93;;;10.07;;
5912;SDS011;2982;42.684;23.356;2023-01-04T10:23:22;12.10;;;9.83;;
5912;SDS011;2982;42.684;23.356;2023-01-04T10:26:10;12.63;;;10.00;;
5912;SDS011;2982;42.684;23.356;2023-01-04T10:36:48;10.25;;;8.35;;
5912;SDS011;2982;42.684;23.356;2023-01-04T10:39:17;11.60;;;9.20;;
5912;SDS011;2982;42.684;23.356;2023-01-04T10:41:51;11.13;;;9.83;;
5912;SDS011;2982;42.684;23.356;2023-01-04T10:47:10;14.53;;;10.17;;
5912;SDS011;2982;42.684;23.356;2023-01-04T10:49:45;9.83;;;8.83;;
5912;SDS011;2982;42.684;23.356;2023-01-04T10:52:16;11.93;;;9.63;;
5912;SDS011;2982;42.684;23.356;2023-01-04T10:54:48;10.00;;;8.57;;
5912;SDS011;2982;42.684;23.356;2023-01-04T10:57:32;9.90;;;8.10;;
5912;SDS011;2982;42.684;23.356;2023-01-04T11:00:04;11.00;;;8.97;;
5912;SDS011;2982;42.684;23.356;2023-01-04T11:05:33;11.37;;;9.97;;
5912;SDS011;2982;42.684;23.356;2023-01-04T11:08:04;11.60;;;8.23;;
5912;SDS011;2982;42.684;23.356;2023-01-04T11:10:42;12.60;;;8.73;;
5912;SDS011;2982;42.684;23.356;2023-01-04T11:13:15;11.17;;;8.93;;
5912;SDS011;2982;42.684;23.356;2023-01-04T11:15:41;11.07;;;8.63;;
5912;SDS011;2982;42.684;23.356;2023-01-04T11:18:08;10.80;;;7.67;;
5912;SDS011;2982;42.684;23.356;2023-01-04T11:20:35;8.17;;;7.40;;
5912;SDS011;2982;42.684;23.356;2023-01-04T11:23:01;8.60;;;7.70;;
5912;SDS011;2982;42.684;23.356;2023-01-04T11:25:34;8.33;;;7.47;;
5912;SDS011;2982;42.684;23.356;2023-01-04T11:33:28;11.93;;;9.90;;
5912;SDS011;2982;42.684;23.356;2023-01-04T11:35:54;11.10;;;9.97;;
5912;SDS011;2982;42.684;23.356;2023-01-04T11:38:22;11.47;;;9.27;;
5912;SDS011;2982;42.684;23.356;2023-01-04T11:41:01;10.60;;;9.10;;
5912;SDS011;2982;42.684;23.356;2023-01-04T11:43:29;11.77;;;8.75;;
5912;SDS011;2982;42.684;23.356;2023-01-04T11:48:43;8.43;;;7.63;;
5912;SDS011;2982;42.684;23.356;2023-01-04T11:56:28;15.43;;;9.70;;
5912;SDS011;2982;42.684;23.356;2023-01-04T12:01:29;11.40;;;9.37;;
5912;SDS011;2982;42.684;23.356;2023-01-04T12:03:56;10.93;;;9.03;;
5912;SDS011;2982;42.684;23.356;2023-01-04T12:06:31;10.33;;;8.53;;
5912;SDS011;2982;42.684;23.356;2023-01-04T12:09:03;10.57;;;8.60;;
5912;SDS011;2982;42.684;23.356;2023-01-04T12:11:29;13.38;;;10.10;;
5912;SDS011;2982;42.684;23.356;2023-01-04T12:13:57;16.57;;;7.67;;
5912;SDS011;2982;42.684;23.356;2023-01-04T12:19:09;10.63;;;8.90;;
5912;SDS011;2982;42.684;23.356;2023-01-04T12:21:38;11.05;;;9.15;;
5912;SDS011;2982;42.684;23.356;2023-01-04T12:24:03;10.30;;;9.27;;
5912;SDS011;2982;42.684;23.356;2023-01-04T12:26:30;10.43;;;9.07;;
5912;SDS011;2982;42.684;23.356;2023-01-04T12:31:45;12.38;;;8.63;;
5912;SDS011;2982;42.684;23.356;2023-01-04T12:39:29;11.82;;;8.85;;
5912;SDS011;2982;42.684;23.356;2023-01-04T12:42:10;13.65;;;9.60;;
5912;SDS011;2982;42.684;23.356;2023-01-04T12:49:44;16.80;;;9.33;;
5912;SDS011;2982;42.684;23.356;2023-01-04T12:54:44;13.75;;;9.00;;
5912;SDS011;2982;42.684;23.356;2023-01-04T13:02:26;11.73;;;7.90;;
5912;SDS011;2982;42.684;23.356;2023-01-04T13:07:46;10.10;;;8.73;;
5912;SDS011;2982;42.684;23.356;2023-01-04T13:18:25;12.77;;;10.27;;
5912;SDS011;2982;42.684;23.356;2023-01-04T13:23:55;12.67;;;10.40;;
5912;SDS011;2982;42.684;23.356;2023-01-04T13:26:39;11.55;;;10.35;;
5912;SDS011;2982;42.684;23.356;2023-01-04T13:32:02;15.47;;;9.60;;
5912;SDS011;2982;42.684;23.356;2023-01-04T13:34:39;11.00;;;9.20;;
5912;SDS011;2982;42.684;23.356;2023-01-04T13:39:36;11.30;;;9.15;;
5912;SDS011;2982;42.684;23.356;2023-01-04T13:42:02;11.93;;;10.33;;
5912;SDS011;2982;42.684;23.356;2023-01-04T13:47:36;17.48;;;10.13;;
5912;SDS011;2982;42.684;23.356;2023-01-04T13:50:05;14.38;;;10.07;;
5912;SDS011;2982;42.684;23.356;2023-01-04T13:52:47;10.52;;;9.40;;
5912;SDS011;2982;42.684;23.356;2023-01-04T14:00:17;12.47;;;9.93;;
5912;SDS011;2982;42.684;23.356;2023-01-04T14:02:42;12.30;;;9.45;;
5912;SDS011;2982;42.684;23.356;2023-01-04T14:05:13;12.60;;;9.30;;
5912;SDS011;2982;42.684;23.356;2023-01-04T14:07:42;14.18;;;10.05;;
5912;SDS011;2982;42.684;23.356;2023-01-04T14:10:15;12.23;;;9.60;;
5912;SDS011;2982;42.684;23.356;2023-01-04T14:12:43;12.85;;;9.00;;
5912;SDS011;2982;42.684;23.356;2023-01-04T14:15:20;13.13;;;8.93;;
5912;SDS011;2982;42.684;23.356;2023-01-04T14:17:51;12.27;;;9.65;;
5912;SDS011;2982;42.684;23.356;2023-01-04T14:30:43;15.53;;;9.87;;
5912;SDS011;2982;42.684;23.356;2023-01-04T14:33:29;15.50;;;9.63;;
5912;SDS011;2982;42.684;23.356;2023-01-04T14:43:49;14.23;;;9.95;;
5912;SDS011;2982;42.684;23.356;2023-01-04T14:46:14;14.00;;;10.67;;
5912;SDS011;2982;42.684;23.356;2023-01-04T14:48:40;14.40;;;9.93;;
5912;SDS011;2982;42.684;23.356;2023-01-04T14:51:05;12.30;;;10.23;;
5912;SDS011;2982;42.684;23.356;2023-01-04T14:53:32;14.93;;;9.93;;
5912;SDS011;2982;42.684;23.356;2023-01-04T14:55:57;16.50;;;10.23;;
5912;SDS011;2982;42.684;23.356;2023-01-04T14:58:23;15.87;;;11.97;;
5912;SDS011;2982;42.684;23.356;2023-01-04T15:00:48;13.63;;;10.83;;
5912;SDS011;2982;42.684;23.356;2023-01-04T15:03:13;15.57;;;11.00;;
5912;SDS011;2982;42.684;23.356;2023-01-04T15:05:39;19.90;;;10.57;;
5912;SDS011;2982;42.684;23.356;2023-01-04T15:08:08;18.17;;;11.30;;
5912;SDS011;2982;42.684;23.356;2023-01-04T15:10:35;18.70;;;12.07;;
5912;SDS011;2982;42.684;23.356;2023-01-04T15:13:00;14.67;;;11.90;;
5912;SDS011;2982;42.684;23.356;2023-01-04T15:15:26;13.40;;;10.53;;
5912;SDS011;2982;42.684;23.356;2023-01-04T15:17:51;16.20;;;11.17;;
5912;SDS011;2982;42.684;23.356;2023-01-04T15:20:16;15.33;;;10.30;;
5912;SDS011;2982;42.684;23.356;2023-01-04T15:22:42;16.23;;;11.00;;
5912;SDS011;2982;42.684;23.356;2023-01-04T15:25:08;15.98;;;11.85;;
5912;SDS011;2982;42.684;23.356;2023-01-04T15:27:33;13.27;;;10.32;;
5912;SDS011;2982;42.684;23.356;2023-01-04T15:29:59;22.80;;;11.00;;
5912;SDS011;2982;42.684;23.356;2023-01-04T15:32:24;12.30;;;9.93;;
5912;SDS011;2982;42.684;23.356;2023-01-04T15:34:50;11.43;;;10.23;;
5912;SDS011;2982;42.684;23.356;2023-01-04T15:37:16;17.70;;;12.27;;
5912;SDS011;2982;42.684;23.356;2023-01-04T15:39:41;19.27;;;11.67;;
5912;SDS011;2982;42.684;23.356;2023-01-04T15:42:08;16.73;;;11.47;;
5912;SDS011;2982;42.684;23.356;2023-01-04T15:44:35;17.77;;;12.20;;
5912;SDS011;2982;42.684;23.356;2023-01-04T15:47:01;19.93;;;11.50;;
5912;SDS011;2982;42.684;23.356;2023-01-04T15:49:27;14.53;;;12.33;;
5912;SDS011;2982;42.684;23.356;2023-01-04T15:51:53;19.30;;;11.43;;
5912;SDS011;2982;42.684;23.356;2023-01-04T15:54:18;19.27;;;12.33;;
5912;SDS011;2982;42.684;23.356;2023-01-04T15:56:44;21.77;;;12.57;;
5912;SDS011;2982;42.684;23.356;2023-01-04T15:59:09;24.27;;;12.87;;
5912;SDS011;2982;42.684;23.356;2023-01-04T16:01:34;15.70;;;12.57;;
5912;SDS011;2982;42.684;23.356;2023-01-04T16:03:59;21.80;;;12.10;;
5912;SDS011;2982;42.684;23.356;2023-01-04T16:06:25;25.10;;;12.90;;
5912;SDS011;2982;42.684;23.356;2023-01-04T16:08:50;17.57;;;12.33;;
5912;SDS011;2982;42.684;23.356;2023-01-04T16:11:16;19.35;;;12.90;;
5912;SDS011;2982;42.684;23.356;2023-01-04T16:13:44;16.37;;;11.93;;
5912;SDS011;2982;42.684;23.356;2023-01-04T16:16:11;21.83;;;13.93;;
5912;SDS011;2982;42.684;23.356;2023-01-04T16:18:36;18.33;;;13.97;;
5912;SDS011;2982;42.684;23.356;2023-01-04T16:21:06;20.40;;;13.90;;
5912;SDS011;2982;42.684;23.356;2023-01-04T16:23:33;24.27;;;14.30;;
5912;SDS011;2982;42.684;23.356;2023-01-04T16:26:06;24.57;;;13.90;;
5912;SDS011;2982;42.684;23.356;2023-01-04T16:28:32;21.03;;;13.23;;
5912;SDS011;2982;42.684;23.356;2023-01-04T16:30:58;21.73;;;13.87;;
5912;SDS011;2982;42.684;23.356;2023-01-04T16:33:23;21.20;;;12.57;;
5912;SDS011;2982;42.684;23.356;2023-01-04T16:35:49;19.27;;;14.03;;
5912;SDS011;2982;42.684;23.356;2023-01-04T16:38:14;21.60;;;13.90;;
5912;SDS011;2982;42.684;23.356;2023-01-04T16:40:39;19.70;;;13.17;;
5912;SDS011;2982;42.684;23.356;2023-01-04T16:43:04;20.50;;;13.67;;
5912;SDS011;2982;42.684;23.356;2023-01-04T16:45:30;22.40;;;14.17;;
5912;SDS011;2982;42.684;23.356;2023-01-04T16:47:55;21.43;;;13.67;;
5912;SDS011;2982;42.684;23.356;2023-01-04T16:50:20;20.70;;;13.90;;
5912;SDS011;2982;42.684;23.356;2023-01-04T16:52:45;19.40;;;14.13;;
5912;SDS011;2982;42.684;23.356;2023-01-04T16:55:11;16.70;;;13.77;;
5912;SDS011;2982;42.684;23.356;2023-01-04T16:57:36;18.60;;;13.40;;
5912;SDS011;2982;42.684;23.356;2023-01-04T17:00:02;20.97;;;13.27;;
5912;SDS011;2982;42.684;23.356;2023-01-04T17:02:28;20.83;;;13.73;;
5912;SDS011;2982;42.684;23.356;2023-01-04T17:04:53;22.47;;;14.07;;
5912;SDS011;2982;42.684;23.356;2023-01-04T17:07:18;18.23;;;13.07;;